Time;durP1;ratioP1;P1;durP2;ratioP2;P2;SDS_P1;SDS_P2;PMS_P1;PMS_P2;Temp;Humidity;BMP_temperature;BMP_pressure;BME280_temperature;BME280_humidity;BME280_pressure;Samples;Min_cycle;Max_cycle;Signal;HPM_P1;HPM_P2
2022/11/19 00:00:32;;;;;;;17.77;13.80;;;8.50;99.90;;;;;;6179015;28;20497;-62
2022/11/19 00:03:37;;;;;;;15.50;13.67;;;8.50;99.90;;;;;;6179783;28;20482;-62
2022/11/19 00:06:41;;;;;;;19.20;15.23;;;8.40;99.90;;;;;;6178703;28;20473;-62
2022/11/19 00:09:44;;;;;;;17.60;13.47;;;8.50;99.90;;;;;;6179496;28;20545;-63
2022/11/19 00:12:55;;;;;;;19.40;15.20;;;8.50;99.90;;;;;;6178691;28;20477;-63
2022/11/19 00:16:03;;;;;;;18.27;14.43;;;8.50;99.90;;;;;;6178787;28;20486;-64
2022/11/19 00:19:09;;;;;;;13.80;12.40;;;8.50;99.90;;;;;;6178112;28;20496;-64
2022/11/19 00:22:12;;;;;;;17.17;14.43;;;8.50;99.90;;;;;;6179840;28;21044;-63
2022/11/19 00:25:16;;;;;;;16.13;13.47;;;8.50;99.90;;;;;;6178140;28;20585;-63
2022/11/19 00:28:19;;;;;;;18.07;14.57;;;8.50;99.90;;;;;;6177865;28;20482;-63
2022/11/19 00:31:22;;;;;;;20.83;14.23;;;8.40;99.90;;;;;;6178842;28;20481;-63
2022/11/19 00:34:27;;;;;;;16.23;12.93;;;8.40;99.90;;;;;;6177627;28;20493;-62
2022/11/19 00:37:30;;;;;;;15.63;13.33;;;8.40;99.90;;;;;;6178206;28;20485;-62
2022/11/19 00:40:33;;;;;;;15.20;13.23;;;8.50;99.90;;;;;;6177200;28;20511;-62
2022/11/19 00:43:49;;;;;;;16.93;12.27;;;8.50;99.90;;;;;;6177888;28;20474;-61
2022/11/19 00:46:52;;;;;;;15.37;12.73;;;8.50;99.90;;;;;;6177909;28;20797;-65
2022/11/19 00:49:56;;;;;;;15.87;12.00;;;8.60;99.90;;;;;;6178454;28;20474;-63
2022/11/19 00:53:00;;;;;;;14.90;12.23;;;8.60;99.90;;;;;;6178601;28;20474;-63
2022/11/19 00:56:05;;;;;;;21.27;14.27;;;8.60;99.90;;;;;;6179355;28;20887;-64
2022/11/19 00:59:08;;;;;;;24.67;16.60;;;8.60;99.90;;;;;;6178356;28;20478;-64
2022/11/19 01:02:11;;;;;;;18.97;13.90;;;8.80;99.90;;;;;;6178569;28;20481;-63
2022/11/19 01:05:16;;;;;;;14.37;12.57;;;8.80;99.90;;;;;;6177103;28;20492;-63
2022/11/19 01:08:19;;;;;;;15.77;14.00;;;8.80;99.90;;;;;;6174976;28;20962;-64
2022/11/19 01:11:25;;;;;;;14.20;11.20;;;8.80;99.90;;;;;;6175367;28;20462;-63
2022/11/19 01:14:28;;;;;;;14.67;13.13;;;8.90;99.90;;;;;;6176374;28;20470;-64
2022/11/19 01:17:31;;;;;;;19.10;14.50;;;8.80;99.90;;;;;;6176154;28;20453;-63
2022/11/19 01:20:35;;;;;;;31.57;19.60;;;8.70;99.90;;;;;;6175445;28;20492;-58
2022/11/19 01:23:42;;;;;;;17.07;12.87;;;8.70;99.90;;;;;;6176222;28;21037;-62
2022/11/19 01:26:45;;;;;;;14.27;10.43;;;8.80;99.90;;;;;;6176472;28;20545;-60
2022/11/19 01:29:48;;;;;;;15.10;12.97;;;8.80;99.90;;;;;;6176166;28;20508;-60
2022/11/19 01:32:51;;;;;;;16.47;12.80;;;8.80;99.90;;;;;;6175824;28;20472;-60
2022/11/19 01:35:57;;;;;;;15.17;12.20;;;8.80;99.90;;;;;;6177141;28;20477;-61
2022/11/19 01:39:00;;;;;;;13.90;12.33;;;8.80;99.90;;;;;;6185659;28;20462;-62
2022/11/19 01:42:04;;;;;;;17.67;12.90;;;8.80;99.90;;;;;;6190967;28;20480;-58
2022/11/19 01:45:08;;;;;;;17.40;15.07;;;8.80;99.90;;;;;;6201844;28;20528;-58
2022/11/19 01:48:29;;;;;;;26.77;21.50;;;8.90;99.90;;;;;;6199917;28;20599;-58
2022/11/19 01:51:37;;;;;;;28.60;23.80;;;8.80;99.90;;;;;;6199795;28;20515;-62
2022/11/19 01:54:46;;;;;;;16.80;14.90;;;8.90;99.90;;;;;;6199857;28;20772;-62
2022/11/19 01:57:54;;;;;;;23.60;16.47;;;8.80;99.90;;;;;;6199805;28;20804;-60
2022/11/19 02:00:57;;;;;;;23.20;17.43;;;8.80;99.90;;;;;;6199909;28;20473;-58
2022/11/19 02:04:02;;;;;;;27.77;20.97;;;8.60;99.90;;;;;;6199308;28;20481;-58
2022/11/19 02:07:09;;;;;;;21.17;17.10;;;8.70;99.90;;;;;;6200038;28;20473;-58
2022/11/19 02:10:13;;;;;;;26.37;19.80;;;8.70;99.90;;;;;;6199899;28;20461;-58
2022/11/19 02:13:24;;;;;;;27.10;19.57;;;8.80;99.90;;;;;;6200795;28;20481;-58
2022/11/19 02:16:39;;;;;;;17.67;14.70;;;8.80;99.90;;;;;;6204503;28;20547;-58
2022/11/19 02:20:06;;;;;;;15.73;12.63;;;8.80;99.90;;;;;;6204753;28;20841;-58
2022/11/19 02:23:29;;;;;;;21.70;17.53;;;8.70;99.90;;;;;;6204583;28;20484;-64
2022/11/19 02:26:52;;;;;;;18.00;15.30;;;8.70;99.90;;;;;;6204451;28;20455;-60
2022/11/19 02:30:09;;;;;;;21.20;17.20;;;8.70;99.90;;;;;;6204590;28;20473;-60
2022/11/19 02:33:21;;;;;;;17.00;14.03;;;8.60;99.90;;;;;;6204200;28;20768;-60
2022/11/19 02:36:28;;;;;;;14.30;12.80;;;8.60;99.90;;;;;;6203953;28;20969;-60
2022/11/19 02:39:38;;;;;;;15.33;13.53;;;8.60;99.90;;;;;;6203923;28;20481;-61
2022/11/19 02:42:50;;;;;;;15.33;13.73;;;8.60;99.90;;;;;;6204585;28;20469;-61
2022/11/19 02:45:58;;;;;;;16.43;13.70;;;8.70;99.90;;;;;;6204081;28;20477;-61
2022/11/19 02:49:02;;;;;;;19.77;14.10;;;8.70;99.90;;;;;;6195253;28;20830;-61
2022/11/19 02:52:05;;;;;;;17.70;14.30;;;8.70;99.90;;;;;;6203659;28;20841;-61
2022/11/19 02:55:12;;;;;;;16.37;13.97;;;8.70;99.90;;;;;;6203637;28;20830;-61
2022/11/19 03:05:10;;;;;;;18.57;14.20;;;8.60;99.90;;;;;;6203374;28;20965;-61
2022/11/19 03:08:14;;;;;;;19.20;13.80;;;8.60;99.90;;;;;;6203587;28;20908;-61
2022/11/19 03:11:21;;;;;;;14.63;13.10;;;8.50;99.90;;;;;;6203447;28;20476;-61
2022/11/19 03:18:02;;;;;;;14.57;12.70;;;8.50;99.90;;;;;;6203355;28;20535;-61
2022/11/19 03:21:12;;;;;;;14.33;11.97;;;8.50;99.90;;;;;;6203189;28;20536;-61
2022/11/19 03:24:21;;;;;;;21.10;12.87;;;8.50;99.90;;;;;;6202895;28;20481;-61
2022/11/19 03:27:27;;;;;;;12.43;10.63;;;8.60;99.90;;;;;;6202695;28;20469;-60
2022/11/19 03:30:31;;;;;;;17.10;12.40;;;8.70;99.90;;;;;;6203375;28;20480;-60
2022/11/19 03:33:39;;;;;;;13.67;12.23;;;8.70;99.90;;;;;;6203031;28;20473;-60
2022/11/19 03:36:45;;;;;;;14.80;13.10;;;8.70;99.90;;;;;;6203416;28;20508;-60
2022/11/19 03:39:50;;;;;;;12.57;11.13;;;8.80;99.90;;;;;;6203237;28;20489;-61
2022/11/19 03:42:55;;;;;;;13.20;11.80;;;8.80;99.90;;;;;;6204053;28;20476;-61
2022/11/19 03:46:02;;;;;;;13.27;11.87;;;8.80;99.90;;;;;;6206009;28;20796;-61
2022/11/19 03:49:08;;;;;;;13.73;11.47;;;8.80;99.90;;;;;;6204643;28;20469;-61
2022/11/19 03:52:15;;;;;;;13.77;11.57;;;8.90;99.90;;;;;;6199924;28;20473;-61
2022/11/19 03:55:18;;;;;;;12.80;11.40;;;8.80;99.90;;;;;;6206424;28;20485;-61
2022/11/19 03:58:24;;;;;;;15.27;11.30;;;8.70;99.90;;;;;;6208367;28;20477;-61
2022/11/19 04:01:27;;;;;;;13.53;12.13;;;8.80;99.90;;;;;;6212742;28;20843;-60
2022/11/19 04:04:38;;;;;;;14.60;10.57;;;8.80;99.90;;;;;;6208782;28;20573;-60
2022/11/19 04:07:41;;;;;;;12.10;10.83;;;8.80;99.90;;;;;;6199767;28;20540;-60
2022/11/19 04:10:44;;;;;;;13.93;11.40;;;8.80;99.90;;;;;;6184501;28;20480;-60
2022/11/19 04:13:47;;;;;;;14.93;12.30;;;8.80;99.90;;;;;;6177761;28;21131;-60
2022/11/19 04:16:50;;;;;;;15.77;12.23;;;8.70;99.90;;;;;;6178116;28;20494;-60
2022/11/19 04:19:55;;;;;;;14.03;11.87;;;8.70;99.90;;;;;;6178134;28;20520;-60
2022/11/19 04:22:58;;;;;;;14.30;12.03;;;8.80;99.90;;;;;;6177610;28;20485;-60
2022/11/19 04:26:01;;;;;;;16.10;12.73;;;8.80;99.90;;;;;;6177816;28;20486;-60
2022/11/19 04:29:04;;;;;;;13.43;11.13;;;8.80;99.90;;;;;;6177638;28;20522;-60
2022/11/19 04:32:07;;;;;;;14.30;11.87;;;8.70;99.90;;;;;;6177431;28;20847;-60
2022/11/19 04:35:12;;;;;;;12.70;10.67;;;8.70;99.90;;;;;;6177502;28;20482;-60
2022/11/19 04:38:16;;;;;;;13.33;11.47;;;8.70;99.90;;;;;;6177485;28;20478;-60
2022/11/19 04:41:19;;;;;;;13.97;11.13;;;8.60;99.90;;;;;;6177276;28;20481;-60
2022/11/19 04:44:22;;;;;;;13.93;11.37;;;8.70;99.90;;;;;;6175704;28;20541;-60
2022/11/19 04:47:25;;;;;;;12.17;10.70;;;8.70;99.90;;;;;;6175654;28;20482;-61
2022/11/19 04:50:29;;;;;;;14.47;10.67;;;8.70;99.90;;;;;;6175568;28;20453;-61
2022/11/19 04:53:33;;;;;;;13.90;10.80;;;8.80;99.90;;;;;;6174989;28;20458;-61
2022/11/19 04:56:36;;;;;;;13.20;11.60;;;8.80;99.90;;;;;;6175565;28;20890;-61
2022/11/19 04:59:39;;;;;;;14.23;11.20;;;8.70;99.90;;;;;;6176849;28;20449;-61
2022/11/19 05:02:42;;;;;;;13.00;11.60;;;8.60;99.90;;;;;;6177021;28;20796;-61
2022/11/19 05:05:47;;;;;;;16.50;12.47;;;8.60;99.90;;;;;;6176091;28;20486;-60
2022/11/19 05:08:50;;;;;;;12.47;11.13;;;8.50;99.90;;;;;;6176788;28;20973;-60
2022/11/19 05:11:53;;;;;;;13.33;11.93;;;8.50;99.90;;;;;;6176730;28;20553;-61
2022/11/19 05:14:56;;;;;;;15.07;12.40;;;8.50;99.90;;;;;;6176652;28;20916;-61
2022/11/19 05:17:59;;;;;;;13.40;11.83;;;8.50;99.90;;;;;;6176731;28;20532;-60
2022/11/19 05:21:04;;;;;;;14.17;11.97;;;8.50;99.90;;;;;;6176587;28;20494;-60
2022/11/19 05:24:08;;;;;;;12.93;11.23;;;8.50;99.90;;;;;;6176528;28;20938;-60
2022/11/19 05:27:11;;;;;;;14.00;11.90;;;8.60;99.90;;;;;;6176721;28;20478;-60
2022/11/19 05:30:14;;;;;;;12.60;10.77;;;8.60;99.90;;;;;;6176641;28;20536;-60
2022/11/19 05:33:17;;;;;;;12.83;11.53;;;8.60;99.90;;;;;;6176252;28;20785;-60
2022/11/19 05:36:22;;;;;;;13.90;11.30;;;8.60;99.90;;;;;;6175961;28;20804;-60
2022/11/19 05:39:25;;;;;;;16.87;12.63;;;8.60;99.90;;;;;;6176339;28;20540;-61
2022/11/19 05:42:28;;;;;;;16.00;12.00;;;8.60;99.90;;;;;;6176461;28;20478;-60
2022/11/19 05:45:32;;;;;;;16.53;13.33;;;8.60;99.90;;;;;;6176041;28;20490;-60
2022/11/19 05:48:35;;;;;;;13.17;11.57;;;8.60;99.90;;;;;;6176182;28;20478;-60
2022/11/19 05:51:39;;;;;;;16.17;12.50;;;8.60;99.90;;;;;;6175926;28;20474;-60
2022/11/19 05:54:42;;;;;;;13.67;12.27;;;8.70;99.90;;;;;;6175833;28;20478;-59
2022/11/19 05:57:45;;;;;;;13.20;11.17;;;8.60;99.90;;;;;;6175998;28;20474;-60
2022/11/19 06:00:53;;;;;;;13.80;11.00;;;8.70;99.90;;;;;;6176743;28;20544;-60
2022/11/19 06:03:56;;;;;;;12.77;11.47;;;8.70;99.90;;;;;;6176118;28;20485;-60
2022/11/19 06:07:01;;;;;;;14.27;11.93;;;8.50;99.90;;;;;;6176207;28;20474;-60
2022/11/19 06:10:05;;;;;;;16.40;12.73;;;8.40;99.90;;;;;;6191029;28;20516;-60
2022/11/19 06:13:08;;;;;;;13.63;12.23;;;8.30;99.90;;;;;;6188146;28;21001;-60
2022/11/19 06:16:11;;;;;;;18.00;12.73;;;8.20;99.90;;;;;;6191254;28;20469;-60
2022/11/19 06:19:14;;;;;;;16.87;12.70;;;8.20;99.90;;;;;;6187900;28;20465;-60
2022/11/19 06:22:18;;;;;;;15.40;12.07;;;8.20;99.90;;;;;;6192613;28;20487;-60
2022/11/19 06:25:21;;;;;;;14.37;11.20;;;8.30;99.90;;;;;;6199764;28;20480;-59
2022/11/19 06:28:24;;;;;;;15.73;13.83;;;8.20;99.90;;;;;;6199889;28;21002;-59
2022/11/19 06:31:28;;;;;;;17.10;13.80;;;8.10;99.90;;;;;;6200055;28;20473;-59
2022/11/19 06:34:31;;;;;;;13.37;11.70;;;8.20;99.90;;;;;;6199761;28;20819;-59
2022/11/19 06:37:35;;;;;;;13.20;11.80;;;8.10;99.90;;;;;;6199522;28;20483;-59
2022/11/19 06:40:38;;;;;;;14.70;12.13;;;8.20;99.90;;;;;;6199927;28;20473;-59
2022/11/19 06:43:42;;;;;;;15.70;12.43;;;8.20;99.90;;;;;;6199797;28;20483;-59
2022/11/19 06:46:45;;;;;;;17.00;11.80;;;8.30;99.90;;;;;;6199971;28;20477;-59
2022/11/19 06:49:48;;;;;;;13.17;11.60;;;8.40;99.90;;;;;;6199846;28;20481;-60
2022/11/19 06:52:53;;;;;;;14.57;12.90;;;8.40;99.90;;;;;;6199524;28;20469;-60
2022/11/19 06:55:57;;;;;;;14.17;11.30;;;8.50;99.90;;;;;;6199423;28;20797;-60
2022/11/19 06:59:00;;;;;;;14.63;11.87;;;8.60;99.90;;;;;;6199388;28;20477;-60
2022/11/19 07:02:03;;;;;;;20.07;13.07;;;8.60;99.90;;;;;;6203170;28;20502;-60
2022/11/19 07:05:07;;;;;;;11.67;10.43;;;8.70;99.90;;;;;;6198339;28;20511;-60
2022/11/19 07:08:11;;;;;;;15.33;12.43;;;8.80;99.90;;;;;;6203678;28;20477;-60
2022/11/19 07:11:26;;;;;;;14.97;11.70;;;8.90;99.90;;;;;;6203520;28;20553;-60
2022/11/19 07:14:29;;;;;;;15.87;12.60;;;8.90;99.90;;;;;;6203841;28;20999;-60
2022/11/19 07:17:33;;;;;;;17.40;12.40;;;9.00;99.90;;;;;;6203633;28;20457;-59
2022/11/19 07:20:36;;;;;;;17.03;12.83;;;9.00;99.90;;;;;;6203771;28;20472;-59
2022/11/19 07:23:40;;;;;;;14.37;12.80;;;9.00;99.90;;;;;;6202679;28;20552;-60
2022/11/19 07:26:44;;;;;;;19.37;14.10;;;9.00;99.90;;;;;;6202868;28;21003;-60
2022/11/19 07:29:47;;;;;;;15.50;13.73;;;9.00;99.90;;;;;;6203446;28;20457;-60
2022/11/19 07:32:53;;;;;;;16.03;13.30;;;8.90;99.90;;;;;;6203160;28;20468;-61
2022/11/19 07:35:56;;;;;;;20.63;16.27;;;8.80;99.90;;;;;;6203471;28;20481;-60
2022/11/19 07:39:00;;;;;;;18.40;15.23;;;8.40;99.90;;;;;;6203268;28;20472;-61
2022/11/19 07:45:24;;;;;;;17.53;14.77;;;8.30;99.90;;;;;;6202558;28;20974;-61
2022/11/19 07:48:27;;;;;;;18.57;15.23;;;8.20;99.90;;;;;;6203214;28;20488;-61
2022/11/19 07:51:30;;;;;;;16.60;14.20;;;8.20;99.90;;;;;;6203179;28;20483;-61
2022/11/19 07:54:35;;;;;;;18.67;15.27;;;8.10;99.90;;;;;;6202995;28;21041;-61
2022/11/19 07:57:38;;;;;;;19.00;15.60;;;8.10;99.90;;;;;;6203059;28;20476;-61
2022/11/19 08:00:41;;;;;;;24.53;16.67;;;8.00;99.90;;;;;;6202995;28;20480;-61
2022/11/19 08:03:46;;;;;;;40.47;17.30;;;8.00;99.90;;;;;;6202058;28;20961;-61
2022/11/19 08:06:55;;;;;;;24.80;17.70;;;7.90;99.90;;;;;;6202899;28;20469;-60
2022/11/19 08:10:00;;;;;;;24.90;20.03;;;7.80;99.90;;;;;;6202576;28;20477;-59
2022/11/19 08:13:03;;;;;;;22.67;18.63;;;7.60;99.90;;;;;;6201932;28;20482;-59
2022/11/19 08:16:08;;;;;;;29.23;25.70;;;7.50;99.90;;;;;;6201914;28;20928;-60
2022/11/19 08:19:13;;;;;;;25.63;18.37;;;7.40;99.90;;;;;;6202241;28;20465;-60
2022/11/19 08:22:16;;;;;;;24.37;18.60;;;7.50;99.90;;;;;;6202524;28;20491;-60
2022/11/19 08:25:20;;;;;;;27.90;18.80;;;7.40;99.90;;;;;;6202259;28;20793;-60
2022/11/19 08:28:23;;;;;;;27.67;18.80;;;7.40;99.90;;;;;;6202185;28;20484;-60
2022/11/19 08:31:27;;;;;;;29.03;19.77;;;7.20;99.90;;;;;;6202136;28;20476;-61
2022/11/19 08:34:31;;;;;;;24.57;19.80;;;7.10;99.90;;;;;;6202473;28;20481;-60
2022/11/19 08:37:34;;;;;;;27.37;17.50;;;7.20;99.90;;;;;;6202005;28;20488;-60
2022/11/19 08:40:38;;;;;;;30.10;21.30;;;7.00;99.90;;;;;;6202202;28;20476;-60
2022/11/19 08:43:41;;;;;;;28.60;20.37;;;6.90;99.90;;;;;;6201611;28;20969;-60
2022/11/19 08:46:44;;;;;;;31.03;21.57;;;6.80;99.90;;;;;;6202175;28;20825;-60
2022/11/19 08:49:47;;;;;;;30.87;20.77;;;6.70;99.90;;;;;;6201699;28;20477;-61
2022/11/19 08:52:55;;;;;;;23.27;19.57;;;6.60;99.90;;;;;;6201633;28;20488;-61
2022/11/19 08:56:00;;;;;;;36.13;21.73;;;6.50;99.90;;;;;;6200952;28;20805;-61
2022/11/19 08:59:03;;;;;;;31.07;22.17;;;6.50;99.90;;;;;;6201340;28;20473;-60
2022/11/19 09:02:09;;;;;;;36.40;23.13;;;6.50;99.90;;;;;;6201207;28;20834;-60
2022/11/19 09:05:12;;;;;;;33.97;22.87;;;6.30;99.90;;;;;;6201148;28;20480;-60
2022/11/19 09:08:16;;;;;;;32.60;22.07;;;6.30;99.90;;;;;;6201151;28;20476;-60
2022/11/19 09:11:21;;;;;;;31.03;20.20;;;6.50;99.90;;;;;;6201359;28;20995;-60
2022/11/19 09:14:25;;;;;;;31.07;22.13;;;6.60;99.90;;;;;;6196093;28;20564;-60
2022/11/19 09:17:28;;;;;;;31.53;20.87;;;6.50;99.90;;;;;;6199273;28;20465;-61
2022/11/19 09:20:31;;;;;;;32.70;22.10;;;6.50;99.90;;;;;;6201148;28;20508;-60
2022/11/19 09:23:34;;;;;;;30.40;21.17;;;6.50;99.90;;;;;;6199883;28;20485;-60
2022/11/19 09:26:39;;;;;;;36.87;22.87;;;6.50;99.90;;;;;;6200861;28;20448;-60
2022/11/19 09:29:42;;;;;;;30.90;22.80;;;6.50;99.90;;;;;;6200994;28;20507;-60
2022/11/19 09:32:45;;;;;;;32.27;22.37;;;6.50;99.90;;;;;;6201058;28;20979;-60
2022/11/19 09:35:49;;;;;;;31.97;21.27;;;6.60;99.90;;;;;;6201059;28;20556;-60
2022/11/19 09:38:56;;;;;;;32.80;20.57;;;6.60;99.90;;;;;;6201705;28;20469;-61
2022/11/19 09:42:13;;;;;;;27.43;19.07;;;6.70;99.90;;;;;;6201099;28;21238;-60
2022/11/19 09:45:21;;;;;;;33.77;24.20;;;6.70;99.90;;;;;;6201362;28;20781;-60
2022/11/19 09:48:32;;;;;;;31.07;20.30;;;6.70;99.90;;;;;;6201363;28;20613;-60
2022/11/19 09:51:37;;;;;;;29.03;18.90;;;6.70;99.90;;;;;;6201599;28;20469;-60
2022/11/19 09:54:46;;;;;;;28.23;19.33;;;6.80;99.90;;;;;;6201060;28;20484;-60
2022/11/19 09:57:55;;;;;;;28.53;19.57;;;6.90;99.90;;;;;;6201115;28;20992;-60
2022/11/19 10:00:58;;;;;;;24.43;17.77;;;6.60;99.90;;;;;;6200701;28;20481;-60
2022/11/19 10:04:01;;;;;;;26.73;18.50;;;6.40;99.90;;;;;;6200849;28;20507;-60
2022/11/19 10:07:11;;;;;;;25.20;16.80;;;6.50;99.90;;;;;;6200345;28;20999;-60
2022/11/19 10:10:32;;;;;;;25.60;16.97;;;6.40;99.90;;;;;;6187750;28;20471;-59
2022/11/19 10:13:50;;;;;;;53.13;33.20;;;6.60;99.90;;;;;;6189184;28;20470;-60
2022/11/19 10:17:00;;;;;;;30.53;18.57;;;6.60;99.90;;;;;;6182039;28;20533;-60
2022/11/19 10:20:18;;;;;;;31.40;21.57;;;6.60;99.90;;;;;;6187368;28;20471;-60
2022/11/19 10:23:29;;;;;;;25.97;17.60;;;6.70;99.90;;;;;;6188415;28;20954;-60
2022/11/19 10:26:35;;;;;;;30.17;21.93;;;6.60;99.90;;;;;;6179170;28;20937;-61
2022/11/19 10:29:40;;;;;;;31.70;23.30;;;6.60;99.90;;;;;;6190180;28;20441;-61
2022/11/19 10:32:53;;;;;;;17.80;12.87;;;6.70;99.90;;;;;;6182708;28;20442;-61
2022/11/19 10:36:01;;;;;;;21.27;15.57;;;6.80;99.90;;;;;;6193296;28;20552;-61
2022/11/19 10:39:15;;;;;;;19.93;15.00;;;6.80;99.90;;;;;;6197900;28;20497;-61
2022/11/19 10:42:22;;;;;;;19.10;13.00;;;6.70;99.90;;;;;;6190013;28;20473;-61
2022/11/19 10:45:28;;;;;;;17.33;11.77;;;6.50;99.90;;;;;;6196949;28;20474;-61
2022/11/19 10:48:39;;;;;;;17.77;13.03;;;6.30;99.90;;;;;;6192570;28;20481;-61
2022/11/19 10:51:42;;;;;;;20.40;12.13;;;6.30;99.90;;;;;;6205220;28;21047;-61
2022/11/19 10:54:48;;;;;;;16.63;11.67;;;6.30;99.90;;;;;;6205038;28;20484;-61
2022/11/19 10:57:59;;;;;;;15.90;12.43;;;6.40;99.90;;;;;;6205107;28;21016;-61
2022/11/19 11:01:14;;;;;;;18.33;11.10;;;6.40;99.90;;;;;;6204844;28;20473;-61
2022/11/19 11:04:20;;;;;;;15.00;11.23;;;6.30;99.90;;;;;;6202813;28;20477;-61
2022/11/19 11:07:43;;;;;;;16.67;13.33;;;6.30;99.90;;;;;;6179015;28;20810;-61
2022/11/19 11:10:52;;;;;;;16.60;11.90;;;6.10;99.90;;;;;;6160513;28;21018;-62
2022/11/19 11:17:35;;;;;;;17.30;11.90;;;6.20;99.90;;;;;;6131201;29;20467;-61
2022/11/19 11:20:39;;;;;;;19.93;13.33;;;6.20;99.90;;;;;;6175726;28;20442;-60
2022/11/19 11:23:51;;;;;;;15.30;11.40;;;6.30;99.90;;;;;;6180807;28;20492;-61
2022/11/19 11:27:19;;;;;;;12.67;10.30;;;6.50;99.90;;;;;;6180003;28;20774;-60
2022/11/19 11:30:22;;;;;;;17.57;10.50;;;6.60;99.90;;;;;;6179834;28;20473;-62
2022/11/19 11:33:30;;;;;;;15.73;10.40;;;6.70;99.90;;;;;;6179218;28;20482;-60
2022/11/19 11:36:35;;;;;;;13.20;10.13;;;6.50;99.90;;;;;;6175467;28;20838;-59
2022/11/19 11:39:42;;;;;;;15.00;11.60;;;6.60;99.90;;;;;;6167205;28;20485;-59
2022/11/19 11:42:46;;;;;;;15.43;12.67;;;6.50;99.90;;;;;;6179842;28;20481;-60
2022/11/19 11:45:57;;;;;;;15.27;11.53;;;6.60;99.90;;;;;;6183446;28;20481;-62
2022/11/19 11:49:02;;;;;;;18.50;13.07;;;6.50;99.90;;;;;;6179108;28;21005;-61
2022/11/19 11:52:18;;;;;;;16.20;12.40;;;6.50;99.90;;;;;;6179078;28;20862;-58
2022/11/19 11:55:32;;;;;;;14.73;10.70;;;6.50;99.90;;;;;;6184052;28;20547;-59
2022/11/19 11:58:36;;;;;;;12.57;9.83;;;6.60;99.90;;;;;;6190384;28;20511;-59
2022/11/19 12:01:41;;;;;;;9.80;8.80;;;6.60;99.90;;;;;;6190419;28;20489;-59
2022/11/19 12:04:45;;;;;;;15.97;11.73;;;6.50;99.90;;;;;;6191654;28;21827;-59
2022/11/19 12:08:02;;;;;;;15.40;10.53;;;6.50;99.90;;;;;;6190400;28;20481;-59
2022/11/19 12:11:10;;;;;;;16.90;13.50;;;6.50;99.90;;;;;;6187844;28;20488;-59
2022/11/19 12:14:16;;;;;;;14.57;11.57;;;6.60;99.90;;;;;;6179435;28;20478;-59
2022/11/19 12:17:36;;;;;;;14.07;10.57;;;6.70;99.90;;;;;;6199463;28;20481;-59
2022/11/19 12:20:47;;;;;;;11.33;9.83;;;6.80;99.90;;;;;;6203438;28;20453;-59
2022/11/19 12:24:06;;;;;;;11.43;8.80;;;6.90;99.90;;;;;;6203206;28;20977;-59
2022/11/19 12:27:19;;;;;;;11.90;9.97;;;7.00;99.90;;;;;;6202746;28;20477;-60
2022/11/19 12:30:24;;;;;;;12.37;8.33;;;7.20;99.90;;;;;;6202887;28;20465;-59
2022/11/19 12:33:44;;;;;;;11.70;9.50;;;7.20;99.90;;;;;;6202551;28;20481;-59
2022/11/19 12:36:57;;;;;;;13.13;8.90;;;7.00;99.90;;;;;;6198211;28;20484;-59
2022/11/19 12:40:10;;;;;;;20.90;13.37;;;6.90;99.90;;;;;;6177998;28;20985;-59
2022/11/19 12:43:35;;;;;;;23.60;14.83;;;7.00;99.90;;;;;;6178448;28;20606;-59
2022/11/19 12:46:49;;;;;;;19.47;13.73;;;6.80;99.90;;;;;;6178095;28;20470;-59
2022/11/19 12:50:18;;;;;;;15.23;11.17;;;6.70;99.90;;;;;;6180543;28;20513;-60
2022/11/19 12:53:49;;;;;;;14.57;10.80;;;6.60;99.90;;;;;;6153784;28;20811;-62
2022/11/19 12:57:14;;;;;;;13.50;10.40;;;6.80;99.90;;;;;;6162932;28;20554;-61
2022/11/19 13:00:20;;;;;;;14.70;9.30;;;6.60;99.90;;;;;;6177790;28;20480;-61
2022/11/19 13:03:35;;;;;;;16.93;11.10;;;6.60;99.90;;;;;;6177781;28;20981;-60
2022/11/19 13:06:44;;;;;;;11.70;9.47;;;6.70;99.90;;;;;;6177771;28;20488;-59
2022/11/19 13:09:52;;;;;;;12.67;9.43;;;6.70;99.90;;;;;;6178008;28;20481;-61
2022/11/19 13:12:58;;;;;;;13.33;9.47;;;6.80;99.90;;;;;;6177801;28;20470;-61
2022/11/19 13:16:07;;;;;;;14.40;10.23;;;6.80;99.90;;;;;;6177838;28;20481;-61
2022/11/19 13:19:20;;;;;;;11.20;9.37;;;6.90;99.90;;;;;;6177101;28;20474;-59
2022/11/19 13:22:29;;;;;;;13.37;9.53;;;7.00;99.90;;;;;;6177253;28;20474;-61
2022/11/19 13:25:40;;;;;;;13.27;10.60;;;7.00;99.90;;;;;;6176709;28;20485;-60
2022/11/19 13:28:49;;;;;;;14.07;10.53;;;7.10;99.90;;;;;;6167797;28;20482;-60
2022/11/19 13:31:58;;;;;;;14.63;8.60;;;7.10;99.90;;;;;;6177023;28;20478;-60
2022/11/19 13:35:17;;;;;;;14.10;11.10;;;7.20;99.90;;;;;;6163575;28;20470;-61
2022/11/19 13:38:28;;;;;;;12.47;9.87;;;7.20;99.90;;;;;;6163024;28;20486;-61
2022/11/19 13:44:37;;;;;;;15.40;10.77;;;7.20;99.90;;;;;;6161100;28;20892;-61
2022/11/19 13:44:59;;;;;;;14.90;11.07;;;7.20;99.90;;;;;;6172518;28;20938;-59
2022/11/19 13:48:08;;;;;;;13.77;10.20;;;7.30;99.90;;;;;;6176783;28;21016;-60
2022/11/19 13:51:29;;;;;;;15.33;11.57;;;7.20;99.90;;;;;;6152877;28;20474;-59
2022/11/19 13:54:35;;;;;;;17.57;12.80;;;7.10;99.90;;;;;;6162945;28;20808;-60
2022/11/19 13:57:44;;;;;;;16.07;10.87;;;7.10;99.90;;;;;;6176760;28;20513;-61
2022/11/19 14:01:23;;;;;;;15.73;11.10;;;7.10;99.90;;;;;;6175936;28;20537;-61
2022/11/19 14:04:49;;;;;;;14.20;10.70;;;7.00;99.90;;;;;;6175619;28;20481;-61
2022/11/19 14:08:10;;;;;;;12.50;9.90;;;7.00;99.90;;;;;;6176355;28;20961;-61
2022/11/19 14:11:27;;;;;;;15.20;10.60;;;7.10;99.90;;;;;;6179894;28;20922;-62
2022/11/19 14:28:47;;;;;;;22.13;13.03;;;6.80;99.90;;;;;;6166302;28;20483;-62
2022/11/19 14:32:18;;;;;;;19.77;13.03;;;6.80;99.90;;;;;;6164400;28;20479;-61
2022/11/19 14:35:35;;;;;;;16.40;11.77;;;6.70;99.90;;;;;;6166566;28;20486;-60
2022/11/19 14:38:42;;;;;;;15.97;12.07;;;6.50;99.90;;;;;;6165025;28;20458;-61
2022/11/19 14:41:46;;;;;;;15.27;11.43;;;6.40;99.90;;;;;;6167726;28;20449;-61
2022/11/19 14:45:20;;;;;;;19.93;13.57;;;6.40;99.90;;;;;;6167115;28;20480;-61
2022/11/19 14:48:23;;;;;;;20.53;13.73;;;6.40;99.90;;;;;;6168218;28;20474;-60
2022/11/19 14:51:31;;;;;;;18.27;13.50;;;6.30;99.90;;;;;;6166266;28;20528;-60
2022/11/19 14:54:42;;;;;;;18.43;13.30;;;6.40;99.90;;;;;;6166948;28;20504;-62
2022/11/19 14:57:56;;;;;;;16.27;11.40;;;6.50;99.90;;;;;;6165954;28;20477;-60
2022/11/19 15:01:11;;;;;;;17.60;12.40;;;6.50;99.90;;;;;;6168638;28;20959;-61
2022/11/19 15:04:25;;;;;;;17.00;12.77;;;6.50;99.90;;;;;;6165549;28;20570;-62
2022/11/19 15:07:42;;;;;;;19.50;13.27;;;6.60;99.90;;;;;;6166534;28;20571;-61
2022/11/19 15:11:03;;;;;;;17.87;12.97;;;6.60;99.90;;;;;;6167974;28;20494;-61
2022/11/19 15:15:03;;;;;;;17.53;13.43;;;6.70;99.90;;;;;;6165875;28;20785;-60
2022/11/19 15:18:15;;;;;;;19.93;13.63;;;6.70;99.90;;;;;;6166842;28;20900;-59
2022/11/19 15:21:43;;;;;;;17.30;13.30;;;6.70;99.90;;;;;;6164500;28;20482;-59
2022/11/19 15:25:12;;;;;;;21.40;14.10;;;6.80;99.90;;;;;;6164883;28;21016;-59
2022/11/19 15:28:35;;;;;;;16.67;11.40;;;6.70;99.90;;;;;;6165929;28;20482;-59
2022/11/19 15:32:00;;;;;;;17.83;14.27;;;6.60;99.90;;;;;;6165856;28;20981;-61
2022/11/19 15:35:38;;;;;;;16.83;12.87;;;6.60;99.90;;;;;;6166967;28;21692;-60
2022/11/19 15:38:47;;;;;;;19.20;14.30;;;6.60;99.90;;;;;;6164233;28;20779;-58
2022/11/19 15:42:00;;;;;;;16.57;14.40;;;6.40;99.90;;;;;;6165483;28;20776;-58
2022/11/19 15:45:12;;;;;;;28.43;18.70;;;6.30;99.90;;;;;;6163918;28;20471;-58
2022/11/19 15:48:20;;;;;;;19.00;14.77;;;6.20;99.90;;;;;;6164773;28;20482;-58
2022/11/19 15:51:25;;;;;;;18.37;14.73;;;5.90;99.90;;;;;;6164254;28;20489;-61
2022/11/19 15:54:29;;;;;;;23.73;17.93;;;5.80;99.90;;;;;;6165541;28;20494;-62
2022/11/19 15:57:34;;;;;;;21.20;15.43;;;5.90;99.90;;;;;;6164182;28;20471;-60
2022/11/19 16:00:45;;;;;;;18.60;15.03;;;6.00;99.90;;;;;;6164680;28;20700;-60
2022/11/19 16:03:52;;;;;;;22.27;15.83;;;6.00;99.90;;;;;;6168044;28;20801;-61
2022/11/19 16:06:56;;;;;;;24.07;14.43;;;5.90;99.90;;;;;;6163938;28;20939;-61
2022/11/19 16:10:00;;;;;;;20.30;15.60;;;6.00;99.90;;;;;;6166206;28;20498;-61
2022/11/19 16:20:19;;;;;;;18.40;13.80;;;6.10;99.90;;;;;;6164424;28;20501;-61
2022/11/19 16:23:25;;;;;;;16.47;11.70;;;6.10;99.90;;;;;;6165906;28;20479;-61
2022/11/19 16:26:29;;;;;;;18.63;12.10;;;6.10;99.90;;;;;;6164923;28;20580;-60
2022/11/19 16:29:39;;;;;;;15.57;12.30;;;6.00;99.90;;;;;;6190562;28;20457;-60
2022/11/19 16:32:42;;;;;;;16.43;11.60;;;5.80;99.90;;;;;;6189876;28;20438;-61
2022/11/19 16:35:46;;;;;;;15.43;10.77;;;5.80;99.90;;;;;;6190033;28;20484;-61
2022/11/19 16:38:57;;;;;;;19.13;13.00;;;5.80;99.90;;;;;;6184548;28;20482;-61
2022/11/19 16:42:16;;;;;;;14.90;11.20;;;5.60;99.90;;;;;;6188143;28;20477;-62
2022/11/19 16:45:24;;;;;;;15.77;11.30;;;5.60;99.90;;;;;;6187912;28;21009;-60